sensor_id;sensor_type;location;lat;lon;timestamp;temperature;humidity
43697;DHT22;29301;47.620;19.560;2022-09-09T00:06:55;20.20;99.90
43697;DHT22;29301;47.620;19.560;2022-09-09T00:09:19;20.10;99.90
43697;DHT22;29301;47.620;19.560;2022-09-09T00:11:52;20.00;99.90
43697;DHT22;29301;47.620;19.560;2022-09-09T00:16:54;20.10;99.90
43697;DHT22;29301;47.620;19.560;2022-09-09T00:19:29;20.10;99.90
43697;DHT22;29301;47.620;19.560;2022-09-09T00:22:20;20.10;99.90
43697;DHT22;29301;47.620;19.560;2022-09-09T00:32:39;20.00;99.90
43697;DHT22;29301;47.620;19.560;2022-09-09T00:35:28;20.00;99.90
43697;DHT22;29301;47.620;19.560;2022-09-09T00:37:58;20.00;99.90
43697;DHT22;29301;47.620;19.560;2022-09-09T00:40:38;19.90;99.90
43697;DHT22;29301;47.620;19.560;2022-09-09T00:43:33;19.90;99.90
43697;DHT22;29301;47.620;19.560;2022-09-09T00:55:02;19.80;99.90
43697;DHT22;29301;47.620;19.560;2022-09-09T00:57:33;19.70;99.90
43697;DHT22;29301;47.620;19.560;2022-09-09T01:03:10;19.70;99.90
43697;DHT22;29301;47.620;19.560;2022-09-09T01:05:54;19.70;99.90
43697;DHT22;29301;47.620;19.560;2022-09-09T01:11:02;19.60;99.90
43697;DHT22;29301;47.620;19.560;2022-09-09T01:13:30;19.40;99.90
43697;DHT22;29301;47.620;19.560;2022-09-09T01:16:01;19.30;99.90
43697;DHT22;29301;47.620;19.560;2022-09-09T01:18:40;19.30;99.90
43697;DHT22;29301;47.620;19.560;2022-09-09T01:27:06;19.10;99.90
43697;DHT22;29301;47.620;19.560;2022-09-09T01:29:33;19.00;99.90
43697;DHT22;29301;47.620;19.560;2022-09-09T01:32:50;19.00;99.90
43697;DHT22;29301;47.620;19.560;2022-09-09T01:34:50;19.10;99.90
43697;DHT22;29301;47.620;19.560;2022-09-09T01:37:16;19.10;99.90
43697;DHT22;29301;47.620;19.560;2022-09-09T01:39:43;19.20;99.90
43697;DHT22;29301;47.620;19.560;2022-09-09T01:42:13;19.20;99.90
43697;DHT22;29301;47.620;19.560;2022-09-09T01:44:40;19.10;99.90
43697;DHT22;29301;47.620;19.560;2022-09-09T01:47:06;19.00;99.90
43697;DHT22;29301;47.620;19.560;2022-09-09T01:49:32;19.10;99.90
43697;DHT22;29301;47.620;19.560;2022-09-09T01:51:58;19.00;99.90
43697;DHT22;29301;47.620;19.560;2022-09-09T01:54:27;19.10;99.90
43697;DHT22;29301;47.620;19.560;2022-09-09T01:57:27;19.00;99.90
43697;DHT22;29301;47.620;19.560;2022-09-09T02:00:12;19.00;99.90
43697;DHT22;29301;47.620;19.560;2022-09-09T02:03:08;19.10;99.90
43697;DHT22;29301;47.620;19.560;2022-09-09T02:05:48;19.10;99.90
43697;DHT22;29301;47.620;19.560;2022-09-09T02:08:23;19.10;99.90
43697;DHT22;29301;47.620;19.560;2022-09-09T02:11:11;19.10;99.90
43697;DHT22;29301;47.620;19.560;2022-09-09T02:13:39;19.10;99.90
43697;DHT22;29301;47.620;19.560;2022-09-09T02:18:49;19.10;99.90
43697;DHT22;29301;47.620;19.560;2022-09-09T02:21:17;19.10;99.90
43697;DHT22;29301;47.620;19.560;2022-09-09T02:23:43;19.00;99.90
43697;DHT22;29301;47.620;19.560;2022-09-09T02:26:13;19.00;99.90
43697;DHT22;29301;47.620;19.560;2022-09-09T02:28:46;19.00;99.90
43697;DHT22;29301;47.620;19.560;2022-09-09T02:31:14;19.00;99.90
43697;DHT22;29301;47.620;19.560;2022-09-09T02:33:47;18.90;99.90
43697;DHT22;29301;47.620;19.560;2022-09-09T02:36:15;19.00;99.90
43697;DHT22;29301;47.620;19.560;2022-09-09T02:38:47;18.90;99.90
43697;DHT22;29301;47.620;19.560;2022-09-09T02:41:24;18.90;99.90
43697;DHT22;29301;47.620;19.560;2022-09-09T02:43:51;18.90;99.90
43697;DHT22;29301;47.620;19.560;2022-09-09T02:49:09;18.80;99.90
43697;DHT22;29301;47.620;19.560;2022-09-09T02:54:27;18.70;99.90
43697;DHT22;29301;47.620;19.560;2022-09-09T02:57:10;18.60;99.90
43697;DHT22;29301;47.620;19.560;2022-09-09T02:59:37;18.60;99.90
43697;DHT22;29301;47.620;19.560;2022-09-09T03:02:03;18.50;99.90
43697;DHT22;29301;47.620;19.560;2022-09-09T03:04:29;18.60;99.90
43697;DHT22;29301;47.620;19.560;2022-09-09T03:06:57;18.60;99.90
43697;DHT22;29301;47.620;19.560;2022-09-09T03:09:22;18.70;99.90
43697;DHT22;29301;47.620;19.560;2022-09-09T03:11:49;18.70;99.90
43697;DHT22;29301;47.620;19.560;2022-09-09T03:14:15;18.80;99.90
43697;DHT22;29301;47.620;19.560;2022-09-09T03:16:41;18.80;99.90
43697;DHT22;29301;47.620;19.560;2022-09-09T03:19:08;18.80;99.90
43697;DHT22;29301;47.620;19.560;2022-09-09T03:21:34;18.80;99.90
43697;DHT22;29301;47.620;19.560;2022-09-09T03:24:00;18.80;99.90
43697;DHT22;29301;47.620;19.560;2022-09-09T03:26:25;18.80;99.90
43697;DHT22;29301;47.620;19.560;2022-09-09T03:28:51;18.90;99.90
43697;DHT22;29301;47.620;19.560;2022-09-09T03:31:17;18.90;99.90
43697;DHT22;29301;47.620;19.560;2022-09-09T03:33:44;18.90;99.90
43697;DHT22;29301;47.620;19.560;2022-09-09T03:36:10;18.90;99.90
43697;DHT22;29301;47.620;19.560;2022-09-09T03:38:36;18.90;99.90
43697;DHT22;29301;47.620;19.560;2022-09-09T03:41:02;18.90;99.90
43697;DHT22;29301;47.620;19.560;2022-09-09T03:43:28;18.90;99.90
43697;DHT22;29301;47.620;19.560;2022-09-09T03:45:55;18.90;99.90
43697;DHT22;29301;47.620;19.560;2022-09-09T03:48:22;18.90;99.90
43697;DHT22;29301;47.620;19.560;2022-09-09T03:50:50;18.90;99.90
43697;DHT22;29301;47.620;19.560;2022-09-09T03:53:17;18.80;99.90
43697;DHT22;29301;47.620;19.560;2022-09-09T03:55:52;18.80;99.90
43697;DHT22;29301;47.620;19.560;2022-09-09T03:58:21;18.80;99.90
43697;DHT22;29301;47.620;19.560;2022-09-09T04:01:18;18.70;99.90
43697;DHT22;29301;47.620;19.560;2022-09-09T04:03:44;18.60;99.90
43697;DHT22;29301;47.620;19.560;2022-09-09T04:06:11;18.60;99.90
43697;DHT22;29301;47.620;19.560;2022-09-09T04:08:38;18.60;99.90
43697;DHT22;29301;47.620;19.560;2022-09-09T04:11:05;18.60;99.90
43697;DHT22;29301;47.620;19.560;2022-09-09T04:13:32;18.60;99.90
43697;DHT22;29301;47.620;19.560;2022-09-09T04:16:00;18.60;99.90
43697;DHT22;29301;47.620;19.560;2022-09-09T04:18:27;18.50;99.90
43697;DHT22;29301;47.620;19.560;2022-09-09T04:20:56;18.60;99.90
43697;DHT22;29301;47.620;19.560;2022-09-09T04:23:24;18.60;99.90
43697;DHT22;29301;47.620;19.560;2022-09-09T04:25:51;18.60;99.90
43697;DHT22;29301;47.620;19.560;2022-09-09T04:28:19;18.50;99.90
43697;DHT22;29301;47.620;19.560;2022-09-09T04:30:45;18.50;99.90
43697;DHT22;29301;47.620;19.560;2022-09-09T04:33:11;18.50;99.90
43697;DHT22;29301;47.620;19.560;2022-09-09T04:35:38;18.40;99.90
43697;DHT22;29301;47.620;19.560;2022-09-09T04:38:04;18.40;99.90
43697;DHT22;29301;47.620;19.560;2022-09-09T04:40:31;18.40;99.90
43697;DHT22;29301;47.620;19.560;2022-09-09T04:43:01;18.40;99.90
43697;DHT22;29301;47.620;19.560;2022-09-09T04:45:27;18.30;99.90
43697;DHT22;29301;47.620;19.560;2022-09-09T04:47:53;18.30;99.90
43697;DHT22;29301;47.620;19.560;2022-09-09T04:50:19;18.30;99.90
43697;DHT22;29301;47.620;19.560;2022-09-09T04:52:45;18.30;99.90
43697;DHT22;29301;47.620;19.560;2022-09-09T04:55:11;18.30;99.90
43697;DHT22;29301;47.620;19.560;2022-09-09T04:57:38;18.30;99.90
43697;DHT22;29301;47.620;19.560;2022-09-09T05:00:04;18.30;99.90
43697;DHT22;29301;47.620;19.560;2022-09-09T05:02:30;18.30;99.90
43697;DHT22;29301;47.620;19.560;2022-09-09T05:04:58;18.40;99.90
43697;DHT22;29301;47.620;19.560;2022-09-09T05:07:24;18.40;99.90
43697;DHT22;29301;47.620;19.560;2022-09-09T05:09:51;18.40;99.90
43697;DHT22;29301;47.620;19.560;2022-09-09T05:12:17;18.50;99.90
43697;DHT22;29301;47.620;19.560;2022-09-09T05:14:43;18.50;99.90
43697;DHT22;29301;47.620;19.560;2022-09-09T05:17:10;18.60;99.90
43697;DHT22;29301;47.620;19.560;2022-09-09T05:19:36;18.60;99.90
43697;DHT22;29301;47.620;19.560;2022-09-09T05:22:02;18.60;99.90
43697;DHT22;29301;47.620;19.560;2022-09-09T05:24:28;18.60;99.90
43697;DHT22;29301;47.620;19.560;2022-09-09T05:26:54;18.60;99.90
43697;DHT22;29301;47.620;19.560;2022-09-09T05:29:23;18.60;99.90
43697;DHT22;29301;47.620;19.560;2022-09-09T05:31:49;18.60;99.90
43697;DHT22;29301;47.620;19.560;2022-09-09T05:34:14;18.60;99.90
43697;DHT22;29301;47.620;19.560;2022-09-09T05:36:40;18.60;99.90
43697;DHT22;29301;47.620;19.560;2022-09-09T05:39:06;18.70;99.90
43697;DHT22;29301;47.620;19.560;2022-09-09T05:41:31;18.60;99.90
43697;DHT22;29301;47.620;19.560;2022-09-09T05:43:58;18.70;99.90
43697;DHT22;29301;47.620;19.560;2022-09-09T05:46:26;18.70;99.90
43697;DHT22;29301;47.620;19.560;2022-09-09T05:48:52;18.70;99.90
43697;DHT22;29301;47.620;19.560;2022-09-09T05:51:24;18.80;99.90
43697;DHT22;29301;47.620;19.560;2022-09-09T05:53:51;18.90;99.90
43697;DHT22;29301;47.620;19.560;2022-09-09T05:56:19;18.80;99.90
43697;DHT22;29301;47.620;19.560;2022-09-09T05:58:46;18.80;99.90
43697;DHT22;29301;47.620;19.560;2022-09-09T06:01:17;18.90;99.90
43697;DHT22;29301;47.620;19.560;2022-09-09T06:03:45;18.90;99.90
43697;DHT22;29301;47.620;19.560;2022-09-09T06:06:13;18.90;99.90
43697;DHT22;29301;47.620;19.560;2022-09-09T06:08:41;19.00;99.90
43697;DHT22;29301;47.620;19.560;2022-09-09T06:11:36;19.00;99.90
43697;DHT22;29301;47.620;19.560;2022-09-09T06:14:03;19.00;99.90
43697;DHT22;29301;47.620;19.560;2022-09-09T06:16:30;19.00;99.90
43697;DHT22;29301;47.620;19.560;2022-09-09T06:18:58;19.00;99.90
43697;DHT22;29301;47.620;19.560;2022-09-09T06:21:29;19.10;99.90
43697;DHT22;29301;47.620;19.560;2022-09-09T06:23:56;19.10;99.90
43697;DHT22;29301;47.620;19.560;2022-09-09T06:26:33;19.20;99.90
43697;DHT22;29301;47.620;19.560;2022-09-09T06:29:00;19.30;99.90
43697;DHT22;29301;47.620;19.560;2022-09-09T06:31:28;19.30;99.90
43697;DHT22;29301;47.620;19.560;2022-09-09T06:33:59;19.40;99.90
43697;DHT22;29301;47.620;19.560;2022-09-09T06:36:31;19.50;99.90
43697;DHT22;29301;47.620;19.560;2022-09-09T06:38:57;19.50;99.90
43697;DHT22;29301;47.620;19.560;2022-09-09T06:41:24;19.60;99.90
43697;DHT22;29301;47.620;19.560;2022-09-09T06:43:51;19.70;99.90
43697;DHT22;29301;47.620;19.560;2022-09-09T06:46:19;19.80;99.90
43697;DHT22;29301;47.620;19.560;2022-09-09T06:48:45;19.80;99.90
43697;DHT22;29301;47.620;19.560;2022-09-09T06:51:19;19.90;99.90
43697;DHT22;29301;47.620;19.560;2022-09-09T06:53:47;20.00;99.90
43697;DHT22;29301;47.620;19.560;2022-09-09T06:56:28;20.00;99.90
43697;DHT22;29301;47.620;19.560;2022-09-09T06:58:57;20.00;99.90
43697;DHT22;29301;47.620;19.560;2022-09-09T07:01:28;20.10;99.90
43697;DHT22;29301;47.620;19.560;2022-09-09T07:03:57;20.20;99.90
43697;DHT22;29301;47.620;19.560;2022-09-09T07:06:45;20.30;99.90
43697;DHT22;29301;47.620;19.560;2022-09-09T07:09:14;20.40;99.90
43697;DHT22;29301;47.620;19.560;2022-09-09T07:11:41;20.40;99.90
43697;DHT22;29301;47.620;19.560;2022-09-09T07:14:07;20.60;99.90
43697;DHT22;29301;47.620;19.560;2022-09-09T07:16:34;20.60;99.90
43697;DHT22;29301;47.620;19.560;2022-09-09T07:19:03;20.70;99.90
43697;DHT22;29301;47.620;19.560;2022-09-09T07:21:30;20.90;99.90
43697;DHT22;29301;47.620;19.560;2022-09-09T07:23:56;21.00;99.90
43697;DHT22;29301;47.620;19.560;2022-09-09T07:26:24;21.20;99.90
43697;DHT22;29301;47.620;19.560;2022-09-09T07:28:50;21.30;99.90
43697;DHT22;29301;47.620;19.560;2022-09-09T07:31:18;21.50;99.90
43697;DHT22;29301;47.620;19.560;2022-09-09T07:33:45;21.80;99.90
43697;DHT22;29301;47.620;19.560;2022-09-09T07:36:26;21.90;98.30
43697;DHT22;29301;47.620;19.560;2022-09-09T07:38:54;22.10;97.40
43697;DHT22;29301;47.620;19.560;2022-09-09T07:41:46;22.20;96.00
43697;DHT22;29301;47.620;19.560;2022-09-09T07:44:15;22.10;95.00
43697;DHT22;29301;47.620;19.560;2022-09-09T07:46:41;22.10;95.60
43697;DHT22;29301;47.620;19.560;2022-09-09T07:49:08;22.00;95.40
43697;DHT22;29301;47.620;19.560;2022-09-09T07:51:36;22.00;94.80
43697;DHT22;29301;47.620;19.560;2022-09-09T07:54:05;22.00;95.20
43697;DHT22;29301;47.620;19.560;2022-09-09T07:56:32;22.40;95.70
43697;DHT22;29301;47.620;19.560;2022-09-09T07:58:59;22.80;94.40
43697;DHT22;29301;47.620;19.560;2022-09-09T08:01:36;23.10;92.70
43697;DHT22;29301;47.620;19.560;2022-09-09T08:04:10;23.40;90.70
43697;DHT22;29301;47.620;19.560;2022-09-09T08:06:51;23.60;90.70
43697;DHT22;29301;47.620;19.560;2022-09-09T08:09:18;23.90;89.20
43697;DHT22;29301;47.620;19.560;2022-09-09T08:11:44;24.20;87.20
43697;DHT22;29301;47.620;19.560;2022-09-09T08:14:10;24.40;85.00
43697;DHT22;29301;47.620;19.560;2022-09-09T08:16:40;24.70;84.70
43697;DHT22;29301;47.620;19.560;2022-09-09T08:19:06;24.70;84.90
43697;DHT22;29301;47.620;19.560;2022-09-09T08:21:34;24.90;82.90
43697;DHT22;29301;47.620;19.560;2022-09-09T08:24:02;25.00;80.20
43697;DHT22;29301;47.620;19.560;2022-09-09T08:26:30;25.20;80.40
43697;DHT22;29301;47.620;19.560;2022-09-09T08:28:57;25.40;78.80
43697;DHT22;29301;47.620;19.560;2022-09-09T08:31:26;25.30;77.50
43697;DHT22;29301;47.620;19.560;2022-09-09T08:33:54;25.50;78.00
43697;DHT22;29301;47.620;19.560;2022-09-09T08:36:21;25.50;76.00
43697;DHT22;29301;47.620;19.560;2022-09-09T08:38:48;25.50;77.90
43697;DHT22;29301;47.620;19.560;2022-09-09T08:43:49;26.00;75.90
43697;DHT22;29301;47.620;19.560;2022-09-09T08:51:49;26.00;75.30
43697;DHT22;29301;47.620;19.560;2022-09-09T08:54:15;25.90;73.90
43697;DHT22;29301;47.620;19.560;2022-09-09T08:56:41;25.80;76.40
43697;DHT22;29301;47.620;19.560;2022-09-09T08:59:10;26.10;76.20
43697;DHT22;29301;47.620;19.560;2022-09-09T09:12:19;27.10;72.80
43697;DHT22;29301;47.620;19.560;2022-09-09T09:14:47;27.30;72.10
43697;DHT22;29301;47.620;19.560;2022-09-09T09:17:18;27.50;70.40
43697;DHT22;29301;47.620;19.560;2022-09-09T09:19:46;27.10;69.80
43697;DHT22;29301;47.620;19.560;2022-09-09T09:22:20;27.00;71.50
43697;DHT22;29301;47.620;19.560;2022-09-09T09:25:31;27.00;71.20
43697;DHT22;29301;47.620;19.560;2022-09-09T09:28:12;26.70;74.80
43697;DHT22;29301;47.620;19.560;2022-09-09T09:30:47;27.00;73.90
43697;DHT22;29301;47.620;19.560;2022-09-09T09:33:18;27.20;72.50
43697;DHT22;29301;47.620;19.560;2022-09-09T09:35:48;27.30;72.00
43697;DHT22;29301;47.620;19.560;2022-09-09T09:40:58;27.50;69.30
43697;DHT22;29301;47.620;19.560;2022-09-09T09:43:35;27.40;70.10
43697;DHT22;29301;47.620;19.560;2022-09-09T09:46:04;27.40;69.60
43697;DHT22;29301;47.620;19.560;2022-09-09T09:48:30;27.50;70.50
43697;DHT22;29301;47.620;19.560;2022-09-09T09:51:00;27.90;71.10
43697;DHT22;29301;47.620;19.560;2022-09-09T09:53:33;27.80;68.30
43697;DHT22;29301;47.620;19.560;2022-09-09T09:56:00;27.90;69.20
43697;DHT22;29301;47.620;19.560;2022-09-09T09:58:29;27.90;67.70
43697;DHT22;29301;47.620;19.560;2022-09-09T10:00:57;27.90;68.00
43697;DHT22;29301;47.620;19.560;2022-09-09T10:05:50;27.90;68.00
43697;DHT22;29301;47.620;19.560;2022-09-09T10:08:17;27.90;67.40
43697;DHT22;29301;47.620;19.560;2022-09-09T10:11:12;27.90;66.80
43697;DHT22;29301;47.620;19.560;2022-09-09T10:16:46;28.00;66.20
43697;DHT22;29301;47.620;19.560;2022-09-09T10:19:32;28.20;65.90
43697;DHT22;29301;47.620;19.560;2022-09-09T10:30:27;28.10;64.00
43697;DHT22;29301;47.620;19.560;2022-09-09T10:33:03;28.10;63.60
43697;DHT22;29301;47.620;19.560;2022-09-09T10:35:35;28.10;63.90
43697;DHT22;29301;47.620;19.560;2022-09-09T10:38:24;28.40;64.40
43697;DHT22;29301;47.620;19.560;2022-09-09T10:54:13;28.50;63.40
43697;DHT22;29301;47.620;19.560;2022-09-09T10:56:44;28.60;63.80
43697;DHT22;29301;47.620;19.560;2022-09-09T10:59:17;28.90;64.10
43697;DHT22;29301;47.620;19.560;2022-09-09T11:04:19;29.10;64.20
43697;DHT22;29301;47.620;19.560;2022-09-09T11:06:50;29.00;62.10
43697;DHT22;29301;47.620;19.560;2022-09-09T11:09:27;28.50;62.00
43697;DHT22;29301;47.620;19.560;2022-09-09T11:11:58;28.50;62.10
43697;DHT22;29301;47.620;19.560;2022-09-09T11:17:15;26.90;64.70
43697;DHT22;29301;47.620;19.560;2022-09-09T11:19:44;26.50;67.90
43697;DHT22;29301;47.620;19.560;2022-09-09T11:22:32;26.80;70.10
43697;DHT22;29301;47.620;19.560;2022-09-09T11:25:00;27.50;67.90
43697;DHT22;29301;47.620;19.560;2022-09-09T11:38:26;26.40;69.90
43697;DHT22;29301;47.620;19.560;2022-09-09T11:41:06;26.70;69.60
43697;DHT22;29301;47.620;19.560;2022-09-09T11:43:43;26.90;68.20
43697;DHT22;29301;47.620;19.560;2022-09-09T11:46:10;27.20;67.10
43697;DHT22;29301;47.620;19.560;2022-09-09T11:48:42;27.50;66.50
43697;DHT22;29301;47.620;19.560;2022-09-09T11:51:12;27.80;64.10
43697;DHT22;29301;47.620;19.560;2022-09-09T11:56:54;28.00;63.10
43697;DHT22;29301;47.620;19.560;2022-09-09T11:59:24;28.10;63.00
43697;DHT22;29301;47.620;19.560;2022-09-09T12:02:12;28.10;63.20
43697;DHT22;29301;47.620;19.560;2022-09-09T12:05:02;28.10;63.00
43697;DHT22;29301;47.620;19.560;2022-09-09T12:07:56;28.10;64.40
43697;DHT22;29301;47.620;19.560;2022-09-09T12:10:30;28.00;63.60
43697;DHT22;29301;47.620;19.560;2022-09-09T12:13:18;27.70;63.70
43697;DHT22;29301;47.620;19.560;2022-09-09T12:15:50;27.50;63.50
43697;DHT22;29301;47.620;19.560;2022-09-09T12:18:23;27.40;63.90
43697;DHT22;29301;47.620;19.560;2022-09-09T12:20:59;27.50;64.60
43697;DHT22;29301;47.620;19.560;2022-09-09T12:34:17;28.30;60.00
43697;DHT22;29301;47.620;19.560;2022-09-09T12:36:48;28.20;59.90
43697;DHT22;29301;47.620;19.560;2022-09-09T12:39:21;28.20;59.70
43697;DHT22;29301;47.620;19.560;2022-09-09T12:41:52;28.00;60.00
43697;DHT22;29301;47.620;19.560;2022-09-09T12:44:23;27.60;60.60
43697;DHT22;29301;47.620;19.560;2022-09-09T12:46:51;27.20;60.90
43697;DHT22;29301;47.620;19.560;2022-09-09T12:49:35;27.30;62.10
43697;DHT22;29301;47.620;19.560;2022-09-09T12:52:15;27.50;62.00
43697;DHT22;29301;47.620;19.560;2022-09-09T12:54:44;27.60;61.90
43697;DHT22;29301;47.620;19.560;2022-09-09T12:57:16;27.70;62.00
43697;DHT22;29301;47.620;19.560;2022-09-09T12:59:43;27.80;61.40
43697;DHT22;29301;47.620;19.560;2022-09-09T13:02:25;27.80;60.90
43697;DHT22;29301;47.620;19.560;2022-09-09T13:04:52;27.80;60.90
43697;DHT22;29301;47.620;19.560;2022-09-09T13:07:20;28.00;60.70
43697;DHT22;29301;47.620;19.560;2022-09-09T13:09:48;28.20;60.60
43697;DHT22;29301;47.620;19.560;2022-09-09T13:12:19;28.40;59.50
43697;DHT22;29301;47.620;19.560;2022-09-09T13:14:49;28.50;58.60
43697;DHT22;29301;47.620;19.560;2022-09-09T13:17:25;28.40;57.60
43697;DHT22;29301;47.620;19.560;2022-09-09T13:19:52;28.20;57.60
43697;DHT22;29301;47.620;19.560;2022-09-09T13:22:37;27.90;57.90
43697;DHT22;29301;47.620;19.560;2022-09-09T13:25:26;27.40;59.30
43697;DHT22;29301;47.620;19.560;2022-09-09T13:28:21;27.10;59.40
43697;DHT22;29301;47.620;19.560;2022-09-09T13:31:00;26.70;60.40
43697;DHT22;29301;47.620;19.560;2022-09-09T13:33:38;26.80;61.20
43697;DHT22;29301;47.620;19.560;2022-09-09T13:36:07;27.10;61.00
43697;DHT22;29301;47.620;19.560;2022-09-09T13:38:53;27.30;60.10
43697;DHT22;29301;47.620;19.560;2022-09-09T13:41:21;27.50;60.00
43697;DHT22;29301;47.620;19.560;2022-09-09T13:43:49;27.60;59.10
43697;DHT22;29301;47.620;19.560;2022-09-09T13:48:58;27.40;57.80
43697;DHT22;29301;47.620;19.560;2022-09-09T13:51:36;27.50;58.30
43697;DHT22;29301;47.620;19.560;2022-09-09T13:54:06;27.50;57.90
43697;DHT22;29301;47.620;19.560;2022-09-09T13:56:35;27.60;57.40
43697;DHT22;29301;47.620;19.560;2022-09-09T13:59:03;27.50;57.60
43697;DHT22;29301;47.620;19.560;2022-09-09T14:01:29;27.40;56.90
43697;DHT22;29301;47.620;19.560;2022-09-09T14:03:55;27.10;57.00
43697;DHT22;29301;47.620;19.560;2022-09-09T14:06:21;27.00;57.60
43697;DHT22;29301;47.620;19.560;2022-09-09T14:08:51;27.00;57.80
43697;DHT22;29301;47.620;19.560;2022-09-09T14:11:18;27.00;57.50
43697;DHT22;29301;47.620;19.560;2022-09-09T14:13:44;27.10;57.80
43697;DHT22;29301;47.620;19.560;2022-09-09T14:16:09;27.10;57.50
43697;DHT22;29301;47.620;19.560;2022-09-09T14:18:35;27.10;57.10
43697;DHT22;29301;47.620;19.560;2022-09-09T14:21:03;27.10;56.90
43697;DHT22;29301;47.620;19.560;2022-09-09T14:23:29;27.10;56.80
43697;DHT22;29301;47.620;19.560;2022-09-09T14:25:55;27.10;56.70
43697;DHT22;29301;47.620;19.560;2022-09-09T14:28:21;27.30;56.60
43697;DHT22;29301;47.620;19.560;2022-09-09T14:30:47;27.30;56.70
43697;DHT22;29301;47.620;19.560;2022-09-09T14:33:15;27.30;56.20
43697;DHT22;29301;47.620;19.560;2022-09-09T14:35:42;27.40;56.30
43697;DHT22;29301;47.620;19.560;2022-09-09T14:38:08;27.30;56.90
43697;DHT22;29301;47.620;19.560;2022-09-09T14:40:35;27.30;57.00
43697;DHT22;29301;47.620;19.560;2022-09-09T14:43:02;27.30;57.00
43697;DHT22;29301;47.620;19.560;2022-09-09T14:45:28;27.20;56.50
43697;DHT22;29301;47.620;19.560;2022-09-09T14:47:54;27.00;56.80
43697;DHT22;29301;47.620;19.560;2022-09-09T14:50:20;27.00;57.00
43697;DHT22;29301;47.620;19.560;2022-09-09T14:52:47;27.00;56.60
43697;DHT22;29301;47.620;19.560;2022-09-09T14:55:13;27.10;56.90
43697;DHT22;29301;47.620;19.560;2022-09-09T14:57:39;27.00;56.60
43697;DHT22;29301;47.620;19.560;2022-09-09T15:00:07;27.10;57.40
43697;DHT22;29301;47.620;19.560;2022-09-09T15:02:34;27.10;57.00
43697;DHT22;29301;47.620;19.560;2022-09-09T15:04:59;27.00;57.60
43697;DHT22;29301;47.620;19.560;2022-09-09T15:07:27;26.90;56.50
43697;DHT22;29301;47.620;19.560;2022-09-09T15:09:54;26.80;56.80
43697;DHT22;29301;47.620;19.560;2022-09-09T15:12:20;26.70;57.10
43697;DHT22;29301;47.620;19.560;2022-09-09T15:14:46;26.70;57.30
43697;DHT22;29301;47.620;19.560;2022-09-09T15:17:12;26.70;57.50
43697;DHT22;29301;47.620;19.560;2022-09-09T15:19:38;26.70;57.40
43697;DHT22;29301;47.620;19.560;2022-09-09T15:22:04;26.60;57.50
43697;DHT22;29301;47.620;19.560;2022-09-09T15:24:31;26.70;58.10
43697;DHT22;29301;47.620;19.560;2022-09-09T15:26:57;26.80;58.30
43697;DHT22;29301;47.620;19.560;2022-09-09T15:29:23;26.80;58.50
43697;DHT22;29301;47.620;19.560;2022-09-09T15:31:49;26.90;58.70
43697;DHT22;29301;47.620;19.560;2022-09-09T15:34:15;26.90;58.30
43697;DHT22;29301;47.620;19.560;2022-09-09T15:36:43;26.90;58.00
43697;DHT22;29301;47.620;19.560;2022-09-09T15:39:13;26.90;57.50
43697;DHT22;29301;47.620;19.560;2022-09-09T15:41:41;26.90;57.40
43697;DHT22;29301;47.620;19.560;2022-09-09T15:44:08;27.00;57.70
43697;DHT22;29301;47.620;19.560;2022-09-09T15:49:03;27.00;57.90
43697;DHT22;29301;47.620;19.560;2022-09-09T15:51:29;26.90;58.30
43697;DHT22;29301;47.620;19.560;2022-09-09T15:53:56;26.80;59.10
43697;DHT22;29301;47.620;19.560;2022-09-09T15:56:23;26.80;58.70
43697;DHT22;29301;47.620;19.560;2022-09-09T15:58:49;26.70;58.60
43697;DHT22;29301;47.620;19.560;2022-09-09T16:01:15;26.80;58.70
43697;DHT22;29301;47.620;19.560;2022-09-09T16:03:42;26.80;58.70
43697;DHT22;29301;47.620;19.560;2022-09-09T16:06:10;26.80;58.70
43697;DHT22;29301;47.620;19.560;2022-09-09T16:08:38;26.80;58.70
43697;DHT22;29301;47.620;19.560;2022-09-09T16:11:07;26.70;58.50
43697;DHT22;29301;47.620;19.560;2022-09-09T16:13:37;26.70;58.80
43697;DHT22;29301;47.620;19.560;2022-09-09T16:16:05;26.70;60.10
43697;DHT22;29301;47.620;19.560;2022-09-09T16:18:37;26.60;60.70
43697;DHT22;29301;47.620;19.560;2022-09-09T16:21:03;26.40;60.20
43697;DHT22;29301;47.620;19.560;2022-09-09T16:23:34;26.20;61.00
43697;DHT22;29301;47.620;19.560;2022-09-09T16:26:01;26.10;61.80
43697;DHT22;29301;47.620;19.560;2022-09-09T16:28:27;25.90;64.50
43697;DHT22;29301;47.620;19.560;2022-09-09T16:30:53;25.70;66.20
43697;DHT22;29301;47.620;19.560;2022-09-09T16:33:19;25.40;68.60
43697;DHT22;29301;47.620;19.560;2022-09-09T16:35:45;25.20;70.70
43697;DHT22;29301;47.620;19.560;2022-09-09T16:38:11;25.00;71.30
43697;DHT22;29301;47.620;19.560;2022-09-09T16:40:38;24.90;72.30
43697;DHT22;29301;47.620;19.560;2022-09-09T16:43:04;24.70;72.60
43697;DHT22;29301;47.620;19.560;2022-09-09T16:45:31;24.60;73.30
43697;DHT22;29301;47.620;19.560;2022-09-09T16:47:58;24.40;73.40
43697;DHT22;29301;47.620;19.560;2022-09-09T16:50:24;24.30;74.80
43697;DHT22;29301;47.620;19.560;2022-09-09T16:52:51;24.30;75.10
43697;DHT22;29301;47.620;19.560;2022-09-09T16:55:17;24.40;75.20
43697;DHT22;29301;47.620;19.560;2022-09-09T16:57:46;24.40;74.50
43697;DHT22;29301;47.620;19.560;2022-09-09T17:00:14;24.50;75.60
43697;DHT22;29301;47.620;19.560;2022-09-09T17:02:42;24.50;77.50
43697;DHT22;29301;47.620;19.560;2022-09-09T17:05:08;24.40;78.20
43697;DHT22;29301;47.620;19.560;2022-09-09T17:07:34;24.40;77.70
43697;DHT22;29301;47.620;19.560;2022-09-09T17:10:01;24.30;78.90
43697;DHT22;29301;47.620;19.560;2022-09-09T17:12:27;24.30;79.00
43697;DHT22;29301;47.620;19.560;2022-09-09T17:14:53;24.20;79.20
43697;DHT22;29301;47.620;19.560;2022-09-09T17:17:20;24.10;79.10
43697;DHT22;29301;47.620;19.560;2022-09-09T17:19:46;24.10;79.30
43697;DHT22;29301;47.620;19.560;2022-09-09T17:22:12;24.10;80.30
43697;DHT22;29301;47.620;19.560;2022-09-09T17:24:38;23.90;80.60
43697;DHT22;29301;47.620;19.560;2022-09-09T17:27:06;23.80;80.80
43697;DHT22;29301;47.620;19.560;2022-09-09T17:29:32;23.70;79.90
43697;DHT22;29301;47.620;19.560;2022-09-09T17:32:01;23.80;80.70
43697;DHT22;29301;47.620;19.560;2022-09-09T17:34:27;23.80;82.20
43697;DHT22;29301;47.620;19.560;2022-09-09T17:36:53;23.80;86.80
43697;DHT22;29301;47.620;19.560;2022-09-09T17:39:19;23.90;91.20
43697;DHT22;29301;47.620;19.560;2022-09-09T17:41:45;23.90;93.50